Time;durP1;ratioP1;P1;durP2;ratioP2;P2;SDS_P1;SDS_P2;PMS_P1;PMS_P2;Temp;Humidity;BMP_temperature;BMP_pressure;BME280_temperature;BME280_humidity;BME280_pressure;Samples;Min_cycle;Max_cycle;Signal;HPM_P1;HPM_P2
2023/07/13 00:01:49;;;;;;;23.13;6.38;;;;;;;;;;4906134;28;20027;-66
2023/07/13 00:04:16;;;;;;;21.08;6.43;;;;;;;;;;4907740;28;20035;-65
2023/07/13 00:06:44;;;;;;;17.80;5.85;;;;;;;;;;4905797;28;20020;-65
2023/07/13 00:09:12;;;;;;;22.45;6.13;;;;;;;;;;4926129;28;20114;-66
2023/07/13 00:11:39;;;;;;;24.85;6.75;;;;;;;;;;4932097;28;20915;-66
2023/07/13 00:14:05;;;;;;;19.10;5.70;;;;;;;;;;4932560;28;20026;-66
2023/07/13 00:16:32;;;;;;;25.33;6.28;;;;;;;;;;4922896;28;20028;-66
2023/07/13 00:19:00;;;;;;;22.05;6.25;;;;;;;;;;4925020;28;20225;-67
2023/07/13 00:21:26;;;;;;;18.20;5.60;;;;;;;;;;4924579;28;20461;-65
2023/07/13 00:23:52;;;;;;;20.50;6.28;;;;;;;;;;4924184;28;20635;-65
2023/07/13 00:26:19;;;;;;;25.35;5.97;;;;;;;;;;4927369;28;20595;-65
2023/07/13 00:28:45;;;;;;;22.30;6.03;;;;;;;;;;4925167;28;20036;-66
2023/07/13 00:31:14;;;;;;;25.52;5.47;;;;;;;;;;4926514;28;20053;-65
2023/07/13 00:33:40;;;;;;;24.55;6.47;;;;;;;;;;4904735;28;20023;-65
2023/07/13 00:36:07;;;;;;;21.42;6.15;;;;;;;;;;4910330;28;20027;-65
2023/07/13 00:38:33;;;;;;;22.15;5.82;;;;;;;;;;4913054;28;20038;-65
2023/07/13 00:40:59;;;;;;;25.02;7.03;;;;;;;;;;4922349;28;22286;-67
2023/07/13 00:43:27;;;;;;;18.80;5.55;;;;;;;;;;4925663;28;20352;-66
2023/07/13 00:45:53;;;;;;;20.73;6.15;;;;;;;;;;4920542;28;20199;-65
2023/07/13 00:48:26;;;;;;;25.85;6.78;;;;;;;;;;4927160;28;20082;-66
2023/07/13 00:50:53;;;;;;;23.45;6.10;;;;;;;;;;4921070;28;20094;-66
2023/07/13 00:53:20;;;;;;;28.30;6.68;;;;;;;;;;4920331;28;20364;-65
2023/07/13 00:55:48;;;;;;;18.00;5.68;;;;;;;;;;4923292;28;20031;-66
2023/07/13 00:58:14;;;;;;;21.48;5.65;;;;;;;;;;4920184;28;20074;-65
2023/07/13 01:00:40;;;;;;;20.75;5.60;;;;;;;;;;4923080;28;20027;-66
2023/07/13 01:03:06;;;;;;;17.70;5.20;;;;;;;;;;4921928;28;20035;-66
2023/07/13 01:05:33;;;;;;;21.70;5.53;;;;;;;;;;4905588;28;20032;-65
2023/07/13 01:08:01;;;;;;;19.38;5.43;;;;;;;;;;4916638;28;20074;-66
2023/07/13 01:10:27;;;;;;;20.13;5.22;;;;;;;;;;4908680;28;20144;-66
2023/07/13 01:12:54;;;;;;;24.17;6.05;;;;;;;;;;4921523;28;20035;-66
2023/07/13 01:15:35;;;;;;;24.02;6.30;;;;;;;;;;4925128;28;20034;-66
2023/07/13 01:18:03;;;;;;;19.95;5.53;;;;;;;;;;4922384;28;20534;-66
2023/07/13 01:20:29;;;;;;;22.13;5.85;;;;;;;;;;4927326;28;20125;-65
2023/07/13 01:22:55;;;;;;;25.50;5.78;;;;;;;;;;4902892;28;20789;-66
2023/07/13 01:25:21;;;;;;;20.33;6.05;;;;;;;;;;4927673;28;20490;-66
2023/07/13 01:27:47;;;;;;;20.55;5.68;;;;;;;;;;4923667;28;20030;-66
2023/07/13 01:30:14;;;;;;;18.63;5.50;;;;;;;;;;4908945;28;20034;-66
2023/07/13 01:32:41;;;;;;;20.05;5.18;;;;;;;;;;4905575;28;20059;-66
2023/07/13 01:35:08;;;;;;;20.50;5.10;;;;;;;;;;4921642;28;20057;-65
2023/07/13 01:37:36;;;;;;;19.75;5.20;;;;;;;;;;4913196;28;20035;-66
2023/07/13 01:40:03;;;;;;;19.90;5.03;;;;;;;;;;4917018;28;20093;-66
2023/07/13 01:42:29;;;;;;;17.40;5.20;;;;;;;;;;4929496;28;20034;-66
2023/07/13 01:44:55;;;;;;;15.82;4.75;;;;;;;;;;4901871;28;20085;-66
2023/07/13 01:47:23;;;;;;;18.02;5.07;;;;;;;;;;4906175;28;20341;-66
2023/07/13 01:49:51;;;;;;;18.92;5.35;;;;;;;;;;4920631;28;20051;-66
2023/07/13 01:52:18;;;;;;;18.15;4.70;;;;;;;;;;4922444;28;20142;-66
2023/07/13 01:54:44;;;;;;;15.90;4.85;;;;;;;;;;4920993;28;20423;-66
2023/07/13 01:57:10;;;;;;;15.82;4.20;;;;;;;;;;4923997;28;20623;-65
2023/07/13 01:59:36;;;;;;;19.40;5.00;;;;;;;;;;4925689;28;20088;-66
2023/07/13 02:02:02;;;;;;;20.35;4.53;;;;;;;;;;4921361;28;20095;-66
2023/07/13 02:04:28;;;;;;;18.77;4.85;;;;;;;;;;4928034;28;20261;-66
2023/07/13 02:06:55;;;;;;;16.10;4.22;;;;;;;;;;4907831;28;20481;-66
2023/07/13 02:09:21;;;;;;;18.13;4.80;;;;;;;;;;4910954;28;20046;-66
2023/07/13 02:11:48;;;;;;;16.05;3.90;;;;;;;;;;4921104;28;20031;-66
2023/07/13 02:14:15;;;;;;;19.80;4.40;;;;;;;;;;4927535;28;20382;-65
2023/07/13 02:16:41;;;;;;;16.85;4.53;;;;;;;;;;4922788;28;20342;-65
2023/07/13 02:19:08;;;;;;;16.17;4.60;;;;;;;;;;4905310;28;20027;-66
2023/07/13 02:21:34;;;;;;;21.33;4.78;;;;;;;;;;4906677;28;20035;-66
2023/07/13 02:24:00;;;;;;;17.88;4.28;;;;;;;;;;4902061;28;20032;-65
2023/07/13 02:26:27;;;;;;;12.20;4.00;;;;;;;;;;4923900;28;20565;-64
2023/07/13 02:28:53;;;;;;;19.63;4.13;;;;;;;;;;4919522;28;20086;-64
2023/07/13 02:31:20;;;;;;;14.77;4.13;;;;;;;;;;4923854;28;20650;-66
2023/07/13 02:33:46;;;;;;;17.92;4.03;;;;;;;;;;4915882;28;20035;-65
2023/07/13 02:36:13;;;;;;;14.80;3.90;;;;;;;;;;4923787;28;20113;-66
2023/07/13 02:38:40;;;;;;;17.65;3.97;;;;;;;;;;4921018;28;20019;-67
2023/07/13 02:41:08;;;;;;;15.45;3.95;;;;;;;;;;4924574;28;20031;-66
2023/07/13 02:43:34;;;;;;;14.90;3.88;;;;;;;;;;4908141;28;20035;-67
2023/07/13 02:46:06;;;;;;;14.30;3.75;;;;;;;;;;4921282;28;20085;-66
2023/07/13 02:48:33;;;;;;;13.88;3.00;;;;;;;;;;4925518;28;20478;-66
2023/07/13 02:50:59;;;;;;;14.32;3.17;;;;;;;;;;4903624;28;20557;-67
2023/07/13 02:53:25;;;;;;;13.75;3.80;;;;;;;;;;4922453;28;20031;-66
2023/07/13 02:55:51;;;;;;;17.98;3.58;;;;;;;;;;4919096;28;20142;-66
2023/07/13 02:58:18;;;;;;;11.50;3.50;;;;;;;;;;4925430;28;20027;-67
2023/07/13 03:00:46;;;;;;;13.00;3.72;;;;;;;;;;4901849;28;20501;-67
2023/07/13 03:03:13;;;;;;;13.13;3.30;;;;;;;;;;4921037;28;20035;-65
2023/07/13 03:05:41;;;;;;;15.48;3.92;;;;;;;;;;4923308;28;20469;-65
2023/07/13 03:08:08;;;;;;;14.13;3.83;;;;;;;;;;4924567;28;20435;-65
2023/07/13 03:10:34;;;;;;;13.23;3.45;;;;;;;;;;4925126;28;20106;-65
2023/07/13 03:13:00;;;;;;;15.80;3.65;;;;;;;;;;4916902;28;20482;-67
2023/07/13 03:15:27;;;;;;;16.38;4.03;;;;;;;;;;4926214;28;20038;-65
2023/07/13 03:17:53;;;;;;;14.70;3.80;;;;;;;;;;4921241;28;20053;-65
2023/07/13 03:20:20;;;;;;;12.93;3.55;;;;;;;;;;4923664;28;20135;-65
2023/07/13 03:22:46;;;;;;;14.18;3.65;;;;;;;;;;4916779;28;20068;-65
2023/07/13 03:25:13;;;;;;;15.10;4.10;;;;;;;;;;4924695;28;20039;-65
2023/07/13 03:27:39;;;;;;;13.05;3.75;;;;;;;;;;4926306;28;20598;-65
2023/07/13 03:30:06;;;;;;;18.52;4.40;;;;;;;;;;4907109;28;20031;-65
2023/07/13 03:32:33;;;;;;;14.15;3.53;;;;;;;;;;4912601;28;20031;-65
2023/07/13 03:34:59;;;;;;;13.77;3.60;;;;;;;;;;4924769;28;20027;-64
2023/07/13 03:37:25;;;;;;;13.95;3.97;;;;;;;;;;4927120;28;20728;-65
2023/07/13 03:39:51;;;;;;;14.13;3.80;;;;;;;;;;4920747;28;20047;-65
2023/07/13 03:42:17;;;;;;;12.60;3.78;;;;;;;;;;4908726;28;20035;-65
2023/07/13 03:44:50;;;;;;;15.48;3.97;;;;;;;;;;4926122;28;20073;-65
2023/07/13 03:47:16;;;;;;;16.48;4.00;;;;;;;;;;4923756;28;20703;-65
2023/07/13 03:49:42;;;;;;;11.40;3.70;;;;;;;;;;4921199;28;20051;-65
2023/07/13 03:52:09;;;;;;;12.57;3.67;;;;;;;;;;4927357;28;20038;-66
2023/07/13 03:54:35;;;;;;;13.15;3.80;;;;;;;;;;4925244;28;20020;-66
2023/07/13 03:57:01;;;;;;;12.55;3.92;;;;;;;;;;4923738;28;20306;-65
2023/07/13 03:59:27;;;;;;;12.43;3.65;;;;;;;;;;4929171;28;20568;-65
2023/07/13 04:01:55;;;;;;;15.20;4.70;;;;;;;;;;4920026;28;20076;-65
2023/07/13 04:04:21;;;;;;;13.70;4.13;;;;;;;;;;4927197;28;20033;-66
2023/07/13 04:06:47;;;;;;;14.68;3.88;;;;;;;;;;4924591;28;20179;-65
2023/07/13 04:09:14;;;;;;;15.15;3.75;;;;;;;;;;4927299;28;20062;-64
2023/07/13 04:11:40;;;;;;;13.43;3.42;;;;;;;;;;4901154;28;20031;-67
2023/07/13 04:14:07;;;;;;;16.73;3.78;;;;;;;;;;4931172;28;20947;-66
2023/07/13 04:16:33;;;;;;;14.15;3.88;;;;;;;;;;4928526;28;20093;-67
2023/07/13 04:18:59;;;;;;;13.63;3.63;;;;;;;;;;4924111;28;20087;-66
2023/07/13 04:21:27;;;;;;;11.15;3.45;;;;;;;;;;4911642;28;20066;-64
2023/07/13 04:23:53;;;;;;;13.82;3.80;;;;;;;;;;4902015;28;20038;-66
2023/07/13 04:26:20;;;;;;;12.55;3.53;;;;;;;;;;4910205;28;20041;-66
2023/07/13 04:28:47;;;;;;;11.25;4.10;;;;;;;;;;4923533;28;20378;-68
2023/07/13 04:31:14;;;;;;;14.07;3.35;;;;;;;;;;4924941;28;20485;-66
2023/07/13 04:33:40;;;;;;;13.73;3.70;;;;;;;;;;4921923;28;20035;-67
2023/07/13 04:36:09;;;;;;;14.18;3.42;;;;;;;;;;4907037;28;20034;-66
2023/07/13 04:38:35;;;;;;;13.75;3.90;;;;;;;;;;4908192;28;20058;-66
2023/07/13 04:41:02;;;;;;;13.00;3.85;;;;;;;;;;4907764;28;20191;-66
2023/07/13 04:43:29;;;;;;;15.30;3.78;;;;;;;;;;4925423;28;20089;-66
2023/07/13 04:45:56;;;;;;;15.05;4.03;;;;;;;;;;4908757;28;20058;-66
2023/07/13 04:48:22;;;;;;;17.90;4.55;;;;;;;;;;4929038;28;20451;-66
2023/07/13 04:50:54;;;;;;;17.30;3.83;;;;;;;;;;4923444;28;20039;-66
2023/07/13 04:53:21;;;;;;;28.63;6.32;;;;;;;;;;4922033;28;20050;-66
2023/07/13 04:55:47;;;;;;;23.05;4.85;;;;;;;;;;4896485;29;20031;-66
2023/07/13 04:58:13;;;;;;;16.88;4.13;;;;;;;;;;4915546;28;20300;-66
2023/07/13 05:00:40;;;;;;;17.48;3.80;;;;;;;;;;4928713;28;20377;-66
2023/07/13 05:03:06;;;;;;;17.40;3.90;;;;;;;;;;4925331;28;20146;-66
2023/07/13 05:05:33;;;;;;;19.35;4.43;;;;;;;;;;4910671;28;20460;-67
2023/07/13 05:08:00;;;;;;;14.98;3.85;;;;;;;;;;4922754;28;20706;-66
2023/07/13 05:10:26;;;;;;;16.02;3.67;;;;;;;;;;4927259;28;20771;-64
2023/07/13 05:12:52;;;;;;;13.60;3.88;;;;;;;;;;4901225;28;20062;-66
2023/07/13 05:15:20;;;;;;;13.55;3.60;;;;;;;;;;4911913;28;20016;-66
2023/07/13 05:17:47;;;;;;;12.93;3.70;;;;;;;;;;4921046;28;20392;-66
2023/07/13 05:20:14;;;;;;;15.65;3.58;;;;;;;;;;4923073;28;20073;-66
2023/07/13 05:22:40;;;;;;;15.80;3.90;;;;;;;;;;4920474;28;20133;-66
2023/07/13 05:25:07;;;;;;;16.27;3.75;;;;;;;;;;4908389;28;20047;-67
2023/07/13 05:27:34;;;;;;;14.07;3.72;;;;;;;;;;4925622;28;21292;-66
2023/07/13 05:30:00;;;;;;;14.32;4.13;;;;;;;;;;4909454;28;20457;-65
2023/07/13 05:32:27;;;;;;;13.20;3.65;;;;;;;;;;4922967;28;20024;-66
2023/07/13 05:34:53;;;;;;;18.80;4.22;;;;;;;;;;4923281;28;20035;-66
2023/07/13 05:37:19;;;;;;;14.55;3.22;;;;;;;;;;4922934;28;20873;-65
2023/07/13 05:39:45;;;;;;;14.80;4.07;;;;;;;;;;4918514;28;20105;-65
2023/07/13 05:42:11;;;;;;;16.20;4.00;;;;;;;;;;4922531;28;20450;-66
2023/07/13 05:44:37;;;;;;;13.60;3.70;;;;;;;;;;4926589;28;20497;-65
2023/07/13 05:47:04;;;;;;;21.13;4.18;;;;;;;;;;4903273;28;20047;-66
2023/07/13 05:49:30;;;;;;;17.65;3.80;;;;;;;;;;4926248;28;20043;-66
2023/07/13 05:51:56;;;;;;;20.30;4.07;;;;;;;;;;4922295;28;20050;-66
2023/07/13 05:54:23;;;;;;;16.83;4.15;;;;;;;;;;4924572;28;20039;-66
2023/07/13 05:56:49;;;;;;;13.07;3.60;;;;;;;;;;4918787;28;20059;-66
2023/07/13 05:59:15;;;;;;;14.25;3.47;;;;;;;;;;4925493;28;20042;-66
2023/07/13 06:01:42;;;;;;;13.68;3.60;;;;;;;;;;4920972;28;20087;-66
2023/07/13 06:04:08;;;;;;;15.70;3.85;;;;;;;;;;4923487;28;20043;-66
2023/07/13 06:06:34;;;;;;;15.32;3.60;;;;;;;;;;4926117;28;20034;-66
2023/07/13 06:09:00;;;;;;;12.93;3.28;;;;;;;;;;4902153;28;21232;-66
2023/07/13 06:11:29;;;;;;;13.32;3.70;;;;;;;;;;4924880;28;20093;-66
2023/07/13 06:13:56;;;;;;;13.27;3.53;;;;;;;;;;4905004;28;20496;-65
2023/07/13 06:16:22;;;;;;;15.77;4.10;;;;;;;;;;4923991;28;20140;-65
2023/07/13 06:18:49;;;;;;;12.70;3.78;;;;;;;;;;4903769;28;20509;-65
2023/07/13 06:21:19;;;;;;;17.38;4.55;;;;;;;;;;4926465;28;20039;-65
2023/07/13 06:23:47;;;;;;;17.50;4.47;;;;;;;;;;4918440;28;20035;-66
2023/07/13 06:26:13;;;;;;;16.23;4.55;;;;;;;;;;4923118;28;20041;-65
2023/07/13 06:28:40;;;;;;;16.52;4.72;;;;;;;;;;4906110;28;20411;-64
2023/07/13 06:31:07;;;;;;;14.15;4.03;;;;;;;;;;4906846;28;20026;-65
2023/07/13 06:33:34;;;;;;;16.38;4.25;;;;;;;;;;4923754;28;20031;-64
2023/07/13 06:36:00;;;;;;;18.58;4.90;;;;;;;;;;4920202;28;20720;-66
2023/07/13 06:38:26;;;;;;;17.30;4.75;;;;;;;;;;4926042;28;20023;-66
2023/07/13 06:40:52;;;;;;;14.23;3.92;;;;;;;;;;4923160;28;20347;-65
2023/07/13 06:43:20;;;;;;;14.80;4.03;;;;;;;;;;4925224;28;20872;-67
2023/07/13 06:45:49;;;;;;;18.33;4.82;;;;;;;;;;4916568;28;20030;-67
2023/07/13 06:48:15;;;;;;;15.05;4.60;;;;;;;;;;4925325;28;20143;-68
2023/07/13 06:50:42;;;;;;;16.90;4.60;;;;;;;;;;4919835;28;20069;-67
2023/07/13 06:53:08;;;;;;;14.27;3.97;;;;;;;;;;4922401;28;20484;-67
2023/07/13 06:55:35;;;;;;;16.08;4.03;;;;;;;;;;4926098;28;20211;-67
2023/07/13 06:58:01;;;;;;;17.60;4.10;;;;;;;;;;4923504;28;20042;-67
2023/07/13 07:00:27;;;;;;;13.00;3.88;;;;;;;;;;4929322;28;20050;-66
2023/07/13 07:02:53;;;;;;;19.23;4.13;;;;;;;;;;4920076;28;20292;-66
2023/07/13 07:05:21;;;;;;;16.50;3.72;;;;;;;;;;4924820;28;20042;-67
2023/07/13 07:07:51;;;;;;;15.98;3.92;;;;;;;;;;4922103;28;20039;-67
2023/07/13 07:10:18;;;;;;;13.98;4.28;;;;;;;;;;4904201;28;20154;-67
2023/07/13 07:12:44;;;;;;;16.67;4.38;;;;;;;;;;4909595;28;20710;-67
2023/07/13 07:15:11;;;;;;;16.83;4.50;;;;;;;;;;4910399;28;20378;-67
2023/07/13 07:17:37;;;;;;;17.02;3.58;;;;;;;;;;4909457;28;20034;-67
2023/07/13 07:20:04;;;;;;;16.92;3.92;;;;;;;;;;4922008;28;20041;-67
2023/07/13 07:22:30;;;;;;;17.17;3.70;;;;;;;;;;4905893;29;20024;-66
2023/07/13 07:24:57;;;;;;;17.30;4.55;;;;;;;;;;4905580;28;20509;-66
2023/07/13 07:27:23;;;;;;;15.20;3.90;;;;;;;;;;4905360;28;20163;-66
2023/07/13 07:29:50;;;;;;;16.67;3.75;;;;;;;;;;4920329;28;20584;-66
2023/07/13 07:32:16;;;;;;;14.27;4.25;;;;;;;;;;4926871;28;20074;-66
2023/07/13 07:34:42;;;;;;;13.48;3.75;;;;;;;;;;4920687;28;20043;-66
2023/07/13 07:37:11;;;;;;;14.38;3.90;;;;;;;;;;4924238;28;20785;-66
2023/07/13 07:39:37;;;;;;;14.70;3.75;;;;;;;;;;4927412;28;20035;-66
2023/07/13 07:42:04;;;;;;;13.98;3.53;;;;;;;;;;4905774;28;20030;-66
2023/07/13 07:44:31;;;;;;;12.52;3.55;;;;;;;;;;4927282;28;20035;-66
2023/07/13 07:46:57;;;;;;;16.58;3.88;;;;;;;;;;4920490;28;20035;-66
2023/07/13 07:49:24;;;;;;;14.00;3.90;;;;;;;;;;4926936;28;20055;-66
2023/07/13 07:51:50;;;;;;;14.55;3.53;;;;;;;;;;4917787;28;20145;-66
2023/07/13 07:54:16;;;;;;;13.98;3.78;;;;;;;;;;4927211;28;20454;-66
2023/07/13 07:56:42;;;;;;;13.35;3.05;;;;;;;;;;4916818;28;20035;-66
2023/07/13 07:59:09;;;;;;;13.30;3.60;;;;;;;;;;4908830;28;20454;-66
2023/07/13 08:01:35;;;;;;;10.68;3.28;;;;;;;;;;4926375;28;20741;-66
2023/07/13 08:04:01;;;;;;;14.15;3.15;;;;;;;;;;4919493;28;20662;-66
2023/07/13 08:06:28;;;;;;;13.60;3.30;;;;;;;;;;4923319;28;20601;-66
2023/07/13 08:08:55;;;;;;;10.80;2.97;;;;;;;;;;4920838;28;20039;-66
2023/07/13 08:11:22;;;;;;;12.85;3.20;;;;;;;;;;4904736;29;20035;-66
2023/07/13 08:13:48;;;;;;;11.60;2.92;;;;;;;;;;4907166;28;20061;-66
2023/07/13 08:16:14;;;;;;;14.38;3.13;;;;;;;;;;4908362;28;20054;-67
2023/07/13 08:18:40;;;;;;;15.10;3.28;;;;;;;;;;4929561;28;20031;-66
2023/07/13 08:21:07;;;;;;;11.35;3.03;;;;;;;;;;4914129;28;20070;-67
2023/07/13 08:23:34;;;;;;;12.38;2.90;;;;;;;;;;4932177;28;20034;-67
2023/07/13 08:26:04;;;;;;;10.75;2.90;;;;;;;;;;4923201;28;20825;-66
2023/07/13 08:28:30;;;;;;;13.65;2.70;;;;;;;;;;4911097;28;20057;-66
2023/07/13 08:31:01;;;;;;;15.23;2.90;;;;;;;;;;4923784;28;20463;-67
2023/07/13 08:33:27;;;;;;;11.55;2.83;;;;;;;;;;4931819;28;20110;-66
2023/07/13 08:35:53;;;;;;;9.90;2.78;;;;;;;;;;4906321;28;20070;-66
2023/07/13 08:38:19;;;;;;;15.95;3.38;;;;;;;;;;4913713;28;20188;-66
2023/07/13 08:40:49;;;;;;;14.07;3.13;;;;;;;;;;4929316;28;20105;-66
2023/07/13 08:43:17;;;;;;;9.25;2.60;;;;;;;;;;4928799;28;20031;-66
2023/07/13 08:45:44;;;;;;;11.73;2.60;;;;;;;;;;4924155;28;20521;-66
2023/07/13 08:48:14;;;;;;;11.95;2.33;;;;;;;;;;4927553;28;20031;-66
2023/07/13 08:50:48;;;;;;;13.02;3.00;;;;;;;;;;4925137;28;20031;-66
2023/07/13 08:53:15;;;;;;;16.48;2.90;;;;;;;;;;4930548;28;20122;-65
2023/07/13 08:55:42;;;;;;;10.40;2.55;;;;;;;;;;4929696;28;20022;-65
2023/07/13 08:58:15;;;;;;;10.80;2.20;;;;;;;;;;4931274;28;20110;-65
2023/07/13 09:00:48;;;;;;;10.15;2.70;;;;;;;;;;4922815;28;20035;-66
2023/07/13 09:03:25;;;;;;;10.88;2.83;;;;;;;;;;4924893;28;20153;-65
2023/07/13 09:05:55;;;;;;;8.82;2.47;;;;;;;;;;4925723;28;20070;-66
2023/07/13 09:08:27;;;;;;;13.43;3.05;;;;;;;;;;4929946;28;20640;-66
2023/07/13 09:10:59;;;;;;;10.10;2.20;;;;;;;;;;4909922;28;20035;-66
2023/07/13 09:13:37;;;;;;;11.32;2.80;;;;;;;;;;4912692;28;20101;-66
2023/07/13 09:16:05;;;;;;;12.23;2.88;;;;;;;;;;4905774;28;20079;-64
2023/07/13 09:18:39;;;;;;;15.27;2.80;;;;;;;;;;4911472;28;20540;-66
2023/07/13 09:21:11;;;;;;;10.55;2.63;;;;;;;;;;4914853;28;20039;-67
2023/07/13 09:23:37;;;;;;;9.48;2.38;;;;;;;;;;4931768;28;20035;-67
2023/07/13 09:26:12;;;;;;;9.80;2.33;;;;;;;;;;4925249;28;20347;-65
2023/07/13 09:29:04;;;;;;;14.27;3.10;;;;;;;;;;4910569;28;20388;-67
2023/07/13 09:31:44;;;;;;;9.93;2.53;;;;;;;;;;4925618;28;20046;-65
2023/07/13 09:34:11;;;;;;;9.40;2.40;;;;;;;;;;4925439;28;20035;-67
2023/07/13 09:36:37;;;;;;;9.68;2.53;;;;;;;;;;4930373;28;20050;-65
2023/07/13 09:39:03;;;;;;;7.68;2.30;;;;;;;;;;4907143;28;20035;-65
2023/07/13 09:41:36;;;;;;;9.75;2.40;;;;;;;;;;4913419;28;20091;-65
2023/07/13 09:44:09;;;;;;;9.07;2.40;;;;;;;;;;4903022;28;20035;-67
2023/07/13 09:46:36;;;;;;;9.90;2.10;;;;;;;;;;4925680;28;20517;-66
2023/07/13 09:49:02;;;;;;;7.78;2.00;;;;;;;;;;4919832;28;20059;-66
2023/07/13 09:51:28;;;;;;;11.05;2.33;;;;;;;;;;4909825;28;20038;-67
2023/07/13 09:53:54;;;;;;;10.25;2.17;;;;;;;;;;4905142;28;20032;-65
2023/07/13 09:56:29;;;;;;;11.55;2.30;;;;;;;;;;4924222;28;20060;-66
2023/07/13 09:58:55;;;;;;;10.57;2.55;;;;;;;;;;4903502;28;20039;-66
2023/07/13 10:01:37;;;;;;;12.95;2.13;;;;;;;;;;4930009;28;20807;-66
2023/07/13 10:04:12;;;;;;;8.52;2.15;;;;;;;;;;4920952;28;20039;-66
2023/07/13 10:06:42;;;;;;;7.75;2.17;;;;;;;;;;4922220;28;20035;-66
2023/07/13 10:09:09;;;;;;;9.63;1.80;;;;;;;;;;4909654;28;20378;-66
2023/07/13 10:11:37;;;;;;;7.43;2.10;;;;;;;;;;4926307;28;20046;-66
2023/07/13 10:14:16;;;;;;;9.80;2.22;;;;;;;;;;4920175;28;20030;-66
2023/07/13 10:16:44;;;;;;;10.43;2.42;;;;;;;;;;4919968;28;20988;-65
2023/07/13 10:19:24;;;;;;;11.50;2.40;;;;;;;;;;4927745;28;20355;-67
2023/07/13 10:22:01;;;;;;;7.90;2.17;;;;;;;;;;4919328;28;20035;-68
2023/07/13 10:24:30;;;;;;;10.25;2.20;;;;;;;;;;4925279;28;20934;-65
2023/07/13 10:27:04;;;;;;;13.07;2.00;;;;;;;;;;4923051;28;20043;-67
2023/07/13 10:29:34;;;;;;;7.22;1.58;;;;;;;;;;4927835;28;20031;-66
2023/07/13 10:32:01;;;;;;;10.07;3.03;;;;;;;;;;4906308;28;20040;-66
2023/07/13 10:34:27;;;;;;;13.07;2.58;;;;;;;;;;4910516;28;20027;-67
2023/07/13 10:36:53;;;;;;;7.18;1.65;;;;;;;;;;4904712;28;20047;-66
2023/07/13 10:39:22;;;;;;;8.82;2.30;;;;;;;;;;4922250;28;20028;-67
2023/07/13 10:41:51;;;;;;;9.30;1.92;;;;;;;;;;4903625;28;20114;-67
2023/07/13 10:44:20;;;;;;;12.82;2.10;;;;;;;;;;4924417;28;20500;-66
2023/07/13 10:46:46;;;;;;;10.45;2.13;;;;;;;;;;4907683;28;20031;-67
2023/07/13 10:49:13;;;;;;;12.32;2.20;;;;;;;;;;4926783;28;20046;-67
2023/07/13 10:51:41;;;;;;;11.25;2.20;;;;;;;;;;4927022;28;20505;-66
2023/07/13 10:54:10;;;;;;;10.30;2.20;;;;;;;;;;4922851;28;20027;-67
2023/07/13 10:56:36;;;;;;;10.45;2.25;;;;;;;;;;4925844;28;20035;-67
2023/07/13 10:59:11;;;;;;;16.38;2.45;;;;;;;;;;4903978;28;20059;-67
2023/07/13 11:01:57;;;;;;;14.02;2.20;;;;;;;;;;4910042;28;20485;-65
2023/07/13 11:04:25;;;;;;;17.95;2.50;;;;;;;;;;4907062;28;20683;-66
2023/07/13 11:06:53;;;;;;;45.03;4.80;;;;;;;;;;4906485;28;20039;-67
2023/07/13 11:09:32;;;;;;;12.85;2.53;;;;;;;;;;4922692;28;20078;-68
2023/07/13 11:12:02;;;;;;;11.57;2.38;;;;;;;;;;4916361;28;20097;-67
2023/07/13 11:14:52;;;;;;;8.77;1.98;;;;;;;;;;4907372;28;20038;-66
2023/07/13 11:17:33;;;;;;;15.10;2.28;;;;;;;;;;4916190;28;20036;-66
2023/07/13 11:20:14;;;;;;;17.13;2.72;;;;;;;;;;4920154;28;20047;-68
2023/07/13 11:23:07;;;;;;;8.70;2.10;;;;;;;;;;4902686;28;20045;-66
2023/07/13 11:25:34;;;;;;;8.25;2.40;;;;;;;;;;4922257;28;20098;-66
2023/07/13 11:28:13;;;;;;;7.90;2.13;;;;;;;;;;4921736;28;20586;-66
2023/07/13 11:30:50;;;;;;;9.00;2.30;;;;;;;;;;4925495;28;20070;-66
2023/07/13 11:33:18;;;;;;;9.05;2.35;;;;;;;;;;4910097;28;20023;-68
2023/07/13 11:35:57;;;;;;;7.55;1.58;;;;;;;;;;4924013;28;20601;-66
2023/07/13 11:38:35;;;;;;;10.98;1.83;;;;;;;;;;4910991;28;20669;-68
2023/07/13 11:41:04;;;;;;;10.60;2.30;;;;;;;;;;4920533;28;20683;-64
2023/07/13 11:43:30;;;;;;;8.00;2.20;;;;;;;;;;4925247;28;20664;-66
2023/07/13 11:45:56;;;;;;;9.57;2.13;;;;;;;;;;4921589;28;20475;-67
2023/07/13 11:48:24;;;;;;;10.27;2.20;;;;;;;;;;4926305;28;20368;-67
2023/07/13 11:50:59;;;;;;;11.23;2.55;;;;;;;;;;4921588;28;20369;-67
2023/07/13 11:53:27;;;;;;;9.90;2.33;;;;;;;;;;4927364;28;20030;-67
2023/07/13 11:55:53;;;;;;;10.70;2.20;;;;;;;;;;4918847;28;20733;-67
2023/07/13 11:58:23;;;;;;;11.40;2.47;;;;;;;;;;4927845;28;20023;-67
2023/07/13 12:00:50;;;;;;;9.75;2.03;;;;;;;;;;4906193;28;20039;-66
2023/07/13 12:03:20;;;;;;;9.40;2.17;;;;;;;;;;4929067;28;20260;-67
2023/07/13 12:06:00;;;;;;;7.20;1.92;;;;;;;;;;4924958;28;20035;-67
2023/07/13 12:08:27;;;;;;;8.48;1.85;;;;;;;;;;4926528;28;20548;-67
2023/07/13 12:11:20;;;;;;;8.13;2.08;;;;;;;;;;4906511;28;20492;-68
2023/07/13 12:13:47;;;;;;;8.05;2.22;;;;;;;;;;4923397;28;20062;-68
2023/07/13 12:16:22;;;;;;;7.85;2.05;;;;;;;;;;4908490;28;20137;-67
2023/07/13 12:18:49;;;;;;;8.77;1.85;;;;;;;;;;4907975;28;20035;-66
2023/07/13 12:21:18;;;;;;;8.45;2.08;;;;;;;;;;4911368;28;20050;-67
2023/07/13 12:23:45;;;;;;;9.88;1.98;;;;;;;;;;4919398;28;20030;-66
2023/07/13 12:26:12;;;;;;;8.55;2.08;;;;;;;;;;4929650;28;20367;-68
2023/07/13 12:28:47;;;;;;;10.02;1.90;;;;;;;;;;4910973;28;20036;-66
2023/07/13 12:31:34;;;;;;;7.32;1.88;;;;;;;;;;4927741;28;20023;-67
2023/07/13 12:34:01;;;;;;;8.18;1.88;;;;;;;;;;4902983;28;21699;-67
2023/07/13 12:36:30;;;;;;;10.85;2.17;;;;;;;;;;4910630;28;20438;-67
2023/07/13 12:38:57;;;;;;;8.70;2.25;;;;;;;;;;4922879;28;20027;-67
2023/07/13 12:41:23;;;;;;;9.07;2.20;;;;;;;;;;4926210;28;20035;-66
2023/07/13 12:43:50;;;;;;;7.35;1.98;;;;;;;;;;4921946;28;20043;-67
2023/07/13 12:46:19;;;;;;;12.90;2.50;;;;;;;;;;4911925;28;20050;-66
2023/07/13 12:48:48;;;;;;;7.60;1.90;;;;;;;;;;4920968;28;20158;-66
2023/07/13 12:51:15;;;;;;;9.60;2.08;;;;;;;;;;4904016;28;20054;-67
2023/07/13 12:53:48;;;;;;;8.68;1.98;;;;;;;;;;4918595;28;20213;-67
2023/07/13 12:56:20;;;;;;;10.48;1.95;;;;;;;;;;4923503;28;20065;-67
2023/07/13 12:58:50;;;;;;;9.68;2.10;;;;;;;;;;4917792;28;20027;-68
2023/07/13 13:01:17;;;;;;;8.82;2.10;;;;;;;;;;4915166;28;20023;-68
2023/07/13 13:03:47;;;;;;;11.43;2.90;;;;;;;;;;4924049;28;20501;-67
2023/07/13 13:06:16;;;;;;;12.10;4.05;;;;;;;;;;4916515;28;20046;-66
2023/07/13 13:08:43;;;;;;;9.20;2.35;;;;;;;;;;4925058;28;20031;-66
2023/07/13 13:11:09;;;;;;;9.45;2.38;;;;;;;;;;4913637;28;20348;-66
2023/07/13 13:13:36;;;;;;;9.38;2.97;;;;;;;;;;4930121;28;20169;-68
2023/07/13 13:16:05;;;;;;;9.65;2.97;;;;;;;;;;4908289;28;20477;-67
2023/07/13 13:18:32;;;;;;;8.82;2.17;;;;;;;;;;4932262;28;20358;-69
2023/07/13 13:20:58;;;;;;;10.07;2.40;;;;;;;;;;4913259;28;20038;-67
2023/07/13 13:23:25;;;;;;;12.95;2.33;;;;;;;;;;4929890;28;20036;-67
2023/07/13 13:25:51;;;;;;;7.47;2.20;;;;;;;;;;4926698;28;20062;-68
2023/07/13 13:28:18;;;;;;;8.95;2.10;;;;;;;;;;4929811;28;20113;-68
2023/07/13 13:30:45;;;;;;;8.85;2.20;;;;;;;;;;4926307;28;20038;-68
2023/07/13 13:33:12;;;;;;;7.72;2.03;;;;;;;;;;4936429;28;20027;-67
2023/07/13 13:35:38;;;;;;;9.82;2.20;;;;;;;;;;4930192;28;20403;-67
2023/07/13 13:38:10;;;;;;;8.35;2.20;;;;;;;;;;4910614;28;20489;-67
2023/07/13 13:40:36;;;;;;;8.45;2.10;;;;;;;;;;4929781;28;20074;-67
2023/07/13 13:43:02;;;;;;;11.40;2.42;;;;;;;;;;4924904;28;20027;-69
2023/07/13 13:45:28;;;;;;;8.77;2.33;;;;;;;;;;4913810;28;20115;-68
2023/07/13 13:47:55;;;;;;;9.27;2.50;;;;;;;;;;4903722;28;20039;-68
2023/07/13 13:50:22;;;;;;;9.40;2.25;;;;;;;;;;4932221;28;20095;-68
2023/07/13 13:52:48;;;;;;;9.63;2.38;;;;;;;;;;4925757;28;20069;-68
2023/07/13 13:55:15;;;;;;;9.20;2.40;;;;;;;;;;4923534;28;20457;-69
2023/07/13 13:57:41;;;;;;;9.05;2.00;;;;;;;;;;4925126;28;20413;-68
2023/07/13 14:00:14;;;;;;;8.38;2.17;;;;;;;;;;4934243;28;20031;-68
2023/07/13 14:02:41;;;;;;;12.30;2.28;;;;;;;;;;4932617;28;20371;-67
2023/07/13 14:05:10;;;;;;;8.85;2.10;;;;;;;;;;4911873;28;20089;-68
2023/07/13 14:07:36;;;;;;;10.27;2.00;;;;;;;;;;4918615;28;20519;-68
2023/07/13 14:10:02;;;;;;;7.95;1.90;;;;;;;;;;4911420;28;20114;-68
2023/07/13 14:12:29;;;;;;;8.98;2.20;;;;;;;;;;4931548;28;20035;-68
2023/07/13 14:14:58;;;;;;;8.10;1.90;;;;;;;;;;4922259;28;20086;-68
2023/07/13 14:17:26;;;;;;;8.20;1.90;;;;;;;;;;4926729;28;20536;-68
2023/07/13 14:19:57;;;;;;;7.65;2.00;;;;;;;;;;4927801;28;20027;-68
2023/07/13 14:22:26;;;;;;;10.60;2.30;;;;;;;;;;4929032;28;20084;-68
2023/07/13 14:24:53;;;;;;;13.52;2.55;;;;;;;;;;4925155;28;20046;-69
2023/07/13 14:27:19;;;;;;;9.63;2.40;;;;;;;;;;4928775;28;21236;-69
2023/07/13 14:29:45;;;;;;;8.15;2.05;;;;;;;;;;4925874;28;20042;-69
2023/07/13 14:32:12;;;;;;;8.82;2.10;;;;;;;;;;4908582;28;20614;-69
2023/07/13 14:34:39;;;;;;;9.57;2.20;;;;;;;;;;4929152;28;20059;-69
2023/07/13 14:37:06;;;;;;;7.53;1.95;;;;;;;;;;4924497;28;20035;-69
2023/07/13 14:39:32;;;;;;;7.47;1.88;;;;;;;;;;4929224;28;20094;-69